Create Tblcommutelog Verified Points Advance Search
| # | Trip ID | Id Commuter | Trip Date | Trip Num | Current Lat | Current Lng | Delta Distance | Current Time | Activity | Activity Confidence | Current Speed | |
|---|---|---|---|---|---|---|---|---|---|---|---|---|
| 70521 | 250310_775339_16505279_0729 | 775339 | (not set) | (not set) | 38.93365216728 | -77.228111541169 | 13.2461 | 2025-03-10 11:48:58.186 | in_vehicle | 100 | 13.308358740065 | |
| 70522 | 250310_780652_6461772_0745 | 780652 | (not set) | (not set) | 38.891613955806 | -76.977335148795 | 0.1846 | 2025-03-10 11:48:59.248 | on_foot | 100 | 0.67502928107146 | |
| 70523 | 250310_755296_16432251_0702 | 755296 | (not set) | (not set) | 38.914338700653 | -77.031868151701 | 5.2415 | 2025-03-10 11:48:59.27 | in_vehicle | 100 | 2.8699920427012 | |
| 70524 | 250310_738572_16489587_0704 | 738572 | (not set) | (not set) | 38.900221639844 | -76.989724435222 | 32.9586 | 2025-03-10 11:48:59.496 | in_vehicle | 100 | 5.1767146190778 | |
| 70525 | 250310_760012_16429192_0735 | 760012 | (not set) | (not set) | 38.925145133055 | -77.052740721598 | 3.0863 | 2025-03-10 11:48:59.681 | in_vehicle | 100 | -0.44703925898772 | |
| 70526 | 250310_758537_16503613_0749 | 758537 | (not set) | (not set) | 38.920776838516 | -77.042217880792 | 0 | 2025-03-10 11:49:01.58 | unknown | 100 | 0.52303593301564 | |
| 70527 | 250310_758537_16503613_0749 | 758537 | (not set) | (not set) | 38.920776838516 | -77.042217880792 | 0 | 2025-03-10 11:49:01.681 | on_foot | 100 | 0.52303593301564 | |
| 70528 | 250310_765203_16513181_0705 | 765203 | (not set) | (not set) | 38.901344756124 | -77.045660155494 | 4.4555 | 2025-03-10 11:49:05.316 | in_vehicle | 100 | 2.7895249760834 | |
| 70529 | 250310_775339_16505279_0729 | 775339 | (not set) | (not set) | 38.933810011059 | -77.223926993849 | 13.4718 | 2025-03-10 11:49:10.2 | in_vehicle | 100 | 14.059384695164 | |
| 70530 | 250310_738572_16489587_0704 | 738572 | (not set) | (not set) | 38.900220266993 | -76.991526671773 | 33.0558 | 2025-03-10 11:49:12.425 | in_vehicle | 100 | 5.5790499521668 | |
| 70531 | 250310_755296_16432251_0702 | 755296 | (not set) | (not set) | 38.915269536452 | -77.031865530154 | 5.3056 | 2025-03-10 11:49:16.217 | in_vehicle | 100 | 2.0653213765233 | |
| 70532 | 250310_775339_16505279_0729 | 775339 | (not set) | (not set) | 38.933959523946 | -77.219703525239 | 13.6996 | 2025-03-10 11:49:22.26 | in_vehicle | 100 | 13.598934258407 | |
| 70533 | 250310_780473_0_0736 | 780473 | (not set) | (not set) | 38.914493089984 | -77.032067996573 | 0.3469 | 2025-03-10 11:49:23.484 | on_foot | 100 | 0.42468729603834 | |
| 70534 | 250310_763194_16506491_0749 | 763194 | (not set) | (not set) | 39.315216064453 | -76.612586330512 | 0 | 2025-03-10 11:49:24.226 | unknown | 100 | -0.44703925898772 | |
| 70535 | 250310_763194_16506491_0749 | 763194 | (not set) | (not set) | 39.315243605288 | -76.612586330512 | 0 | 2025-03-10 11:49:24.281 | unknown | 100 | -0.44703925898772 | |
| 70536 | 250310_738572_16489587_0704 | 738572 | (not set) | (not set) | 38.90021772222 | -76.993365462866 | 33.1549 | 2025-03-10 11:49:25.485 | in_vehicle | 100 | 5.4583493522401 | |
| 70537 | 250310_780652_6461772_0745 | 780652 | (not set) | (not set) | 38.891161253479 | -76.977339570712 | 0.2159 | 2025-03-10 11:49:31.302 | on_foot | 100 | 0.65714771071195 | |
| 70538 | 250310_762844_16460442_0650 | 762844 | (not set) | (not set) | 38.899437581049 | -77.009196334316 | 40.2223 | 2025-03-10 11:49:32.255 | on_foot | 100 | 0.56326946632453 | |
| 70539 | 250310_781052_16450333_0737 | 781052 | (not set) | (not set) | 39.172770024335 | -77.270350890187 | 2.5553 | 2025-03-10 11:49:36.484 | in_vehicle | 100 | 2.1681404060905 | |
| 70540 | 250310_781052_16450333_0737 | 781052 | (not set) | (not set) | 39.172046028393 | -77.269625624078 | 2.6187 | 2025-03-10 11:49:36.617 | in_vehicle | 100 | 4.224520997434 |